sensor_id;sensor_type;location;lat;lon;timestamp;temperature;humidity
32753;DHT22;19121;52.428;10.816;2023-08-24T00:01:06;25.30;53.20
32753;DHT22;19121;52.428;10.816;2023-08-24T00:03:32;25.20;53.10
32753;DHT22;19121;52.428;10.816;2023-08-24T00:05:58;25.20;53.10
32753;DHT22;19121;52.428;10.816;2023-08-24T00:08:23;25.20;53.10
32753;DHT22;19121;52.428;10.816;2023-08-24T00:10:49;25.20;53.10
32753;DHT22;19121;52.428;10.816;2023-08-24T00:13:14;25.20;53.10
32753;DHT22;19121;52.428;10.816;2023-08-24T00:15:41;25.20;53.10
32753;DHT22;19121;52.428;10.816;2023-08-24T00:18:06;25.20;53.10
32753;DHT22;19121;52.428;10.816;2023-08-24T00:20:32;25.20;53.10
32753;DHT22;19121;52.428;10.816;2023-08-24T00:22:58;25.20;53.10
32753;DHT22;19121;52.428;10.816;2023-08-24T00:25:23;25.20;53.10
32753;DHT22;19121;52.428;10.816;2023-08-24T00:27:49;25.20;53.10
32753;DHT22;19121;52.428;10.816;2023-08-24T00:30:15;25.20;53.10
32753;DHT22;19121;52.428;10.816;2023-08-24T00:32:40;25.20;53.20
32753;DHT22;19121;52.428;10.816;2023-08-24T00:35:06;25.20;53.10
32753;DHT22;19121;52.428;10.816;2023-08-24T00:37:33;25.20;53.10
32753;DHT22;19121;52.428;10.816;2023-08-24T00:40:05;25.20;53.10
32753;DHT22;19121;52.428;10.816;2023-08-24T00:42:38;25.20;53.20
32753;DHT22;19121;52.428;10.816;2023-08-24T00:45:04;25.10;53.10
32753;DHT22;19121;52.428;10.816;2023-08-24T00:47:29;25.10;53.10
32753;DHT22;19121;52.428;10.816;2023-08-24T00:49:55;25.20;53.10
32753;DHT22;19121;52.428;10.816;2023-08-24T00:52:20;25.10;53.10
32753;DHT22;19121;52.428;10.816;2023-08-24T00:54:46;25.10;53.10
32753;DHT22;19121;52.428;10.816;2023-08-24T00:57:12;25.10;53.10
32753;DHT22;19121;52.428;10.816;2023-08-24T00:59:38;25.10;53.20
32753;DHT22;19121;52.428;10.816;2023-08-24T01:02:04;25.10;53.10
32753;DHT22;19121;52.428;10.816;2023-08-24T01:04:29;25.10;53.10
32753;DHT22;19121;52.428;10.816;2023-08-24T01:06:55;25.10;53.10
32753;DHT22;19121;52.428;10.816;2023-08-24T01:09:20;25.10;53.20
32753;DHT22;19121;52.428;10.816;2023-08-24T01:12:06;25.10;53.20
32753;DHT22;19121;52.428;10.816;2023-08-24T01:14:47;25.10;53.10
32753;DHT22;19121;52.428;10.816;2023-08-24T01:17:15;25.10;53.20
32753;DHT22;19121;52.428;10.816;2023-08-24T01:19:42;25.10;53.30
32753;DHT22;19121;52.428;10.816;2023-08-24T01:24:40;25.10;53.30
32753;DHT22;19121;52.428;10.816;2023-08-24T01:27:06;25.10;53.30
32753;DHT22;19121;52.428;10.816;2023-08-24T01:29:32;25.00;53.20
32753;DHT22;19121;52.428;10.816;2023-08-24T01:31:58;25.00;53.30
32753;DHT22;19121;52.428;10.816;2023-08-24T01:34:23;25.00;53.20
32753;DHT22;19121;52.428;10.816;2023-08-24T01:36:48;25.00;53.30
32753;DHT22;19121;52.428;10.816;2023-08-24T01:39:57;25.00;53.30
32753;DHT22;19121;52.428;10.816;2023-08-24T01:42:02;25.00;53.30
32753;DHT22;19121;52.428;10.816;2023-08-24T01:44:30;25.00;53.40
32753;DHT22;19121;52.428;10.816;2023-08-24T01:47:00;25.00;53.30
32753;DHT22;19121;52.428;10.816;2023-08-24T01:49:27;24.90;53.30
32753;DHT22;19121;52.428;10.816;2023-08-24T01:51:54;25.00;53.30
32753;DHT22;19121;52.428;10.816;2023-08-24T01:54:20;25.00;53.40
32753;DHT22;19121;52.428;10.816;2023-08-24T01:56:45;24.90;53.30
32753;DHT22;19121;52.428;10.816;2023-08-24T01:59:11;25.00;53.30
32753;DHT22;19121;52.428;10.816;2023-08-24T02:01:36;24.90;53.30
32753;DHT22;19121;52.428;10.816;2023-08-24T02:04:01;24.90;53.30
32753;DHT22;19121;52.428;10.816;2023-08-24T02:06:27;24.90;53.30
32753;DHT22;19121;52.428;10.816;2023-08-24T02:08:52;24.90;53.30
32753;DHT22;19121;52.428;10.816;2023-08-24T02:11:18;24.90;53.30
32753;DHT22;19121;52.428;10.816;2023-08-24T02:13:43;24.90;53.30
32753;DHT22;19121;52.428;10.816;2023-08-24T02:16:09;24.90;53.50
32753;DHT22;19121;52.428;10.816;2023-08-24T02:18:36;24.90;53.30
32753;DHT22;19121;52.428;10.816;2023-08-24T02:21:06;24.90;53.30
32753;DHT22;19121;52.428;10.816;2023-08-24T02:23:31;24.90;53.40
32753;DHT22;19121;52.428;10.816;2023-08-24T02:25:57;24.90;53.40
32753;DHT22;19121;52.428;10.816;2023-08-24T02:28:22;24.90;53.40
32753;DHT22;19121;52.428;10.816;2023-08-24T02:30:48;24.90;53.40
32753;DHT22;19121;52.428;10.816;2023-08-24T02:33:13;24.90;53.40
32753;DHT22;19121;52.428;10.816;2023-08-24T02:35:39;24.90;53.40
32753;DHT22;19121;52.428;10.816;2023-08-24T02:38:04;24.90;53.40
32753;DHT22;19121;52.428;10.816;2023-08-24T02:40:30;24.90;53.40
32753;DHT22;19121;52.428;10.816;2023-08-24T02:42:55;24.90;53.40
32753;DHT22;19121;52.428;10.816;2023-08-24T02:45:20;24.80;53.40
32753;DHT22;19121;52.428;10.816;2023-08-24T02:47:46;24.80;53.40
32753;DHT22;19121;52.428;10.816;2023-08-24T02:50:11;24.80;53.40
32753;DHT22;19121;52.428;10.816;2023-08-24T02:52:37;24.80;53.40
32753;DHT22;19121;52.428;10.816;2023-08-24T02:55:03;24.80;53.40
32753;DHT22;19121;52.428;10.816;2023-08-24T02:57:29;24.80;53.40
32753;DHT22;19121;52.428;10.816;2023-08-24T02:59:54;24.80;53.40
32753;DHT22;19121;52.428;10.816;2023-08-24T03:02:19;24.80;53.40
32753;DHT22;19121;52.428;10.816;2023-08-24T03:04:45;24.80;53.40
32753;DHT22;19121;52.428;10.816;2023-08-24T03:07:10;24.80;53.40
32753;DHT22;19121;52.428;10.816;2023-08-24T03:09:36;24.80;53.50
32753;DHT22;19121;52.428;10.816;2023-08-24T03:12:01;24.80;53.40
32753;DHT22;19121;52.428;10.816;2023-08-24T03:14:27;24.80;53.40
32753;DHT22;19121;52.428;10.816;2023-08-24T03:16:53;24.80;53.40
32753;DHT22;19121;52.428;10.816;2023-08-24T03:19:18;24.80;53.40
32753;DHT22;19121;52.428;10.816;2023-08-24T03:21:44;24.80;53.50
32753;DHT22;19121;52.428;10.816;2023-08-24T03:24:09;24.80;53.50
32753;DHT22;19121;52.428;10.816;2023-08-24T03:26:35;24.80;53.50
32753;DHT22;19121;52.428;10.816;2023-08-24T03:29:00;24.70;53.40
32753;DHT22;19121;52.428;10.816;2023-08-24T03:31:26;24.80;53.50
32753;DHT22;19121;52.428;10.816;2023-08-24T03:33:51;24.70;53.40
32753;DHT22;19121;52.428;10.816;2023-08-24T03:36:17;24.70;53.50
32753;DHT22;19121;52.428;10.816;2023-08-24T03:38:42;24.70;53.40
32753;DHT22;19121;52.428;10.816;2023-08-24T03:41:08;24.70;53.40
32753;DHT22;19121;52.428;10.816;2023-08-24T03:43:34;24.70;53.50
32753;DHT22;19121;52.428;10.816;2023-08-24T03:46:00;24.60;53.40
32753;DHT22;19121;52.428;10.816;2023-08-24T03:48:26;24.70;53.50
32753;DHT22;19121;52.428;10.816;2023-08-24T03:50:55;24.70;53.40
32753;DHT22;19121;52.428;10.816;2023-08-24T03:53:20;24.70;53.50
32753;DHT22;19121;52.428;10.816;2023-08-24T03:55:50;24.70;53.50
32753;DHT22;19121;52.428;10.816;2023-08-24T03:58:15;24.60;53.50
32753;DHT22;19121;52.428;10.816;2023-08-24T04:00:41;24.70;53.50
32753;DHT22;19121;52.428;10.816;2023-08-24T04:03:07;24.60;53.50
32753;DHT22;19121;52.428;10.816;2023-08-24T04:05:32;24.70;53.50
32753;DHT22;19121;52.428;10.816;2023-08-24T04:07:58;24.70;53.50
32753;DHT22;19121;52.428;10.816;2023-08-24T04:10:25;24.60;53.50
32753;DHT22;19121;52.428;10.816;2023-08-24T04:12:51;24.60;53.50
32753;DHT22;19121;52.428;10.816;2023-08-24T04:15:16;24.60;53.50
32753;DHT22;19121;52.428;10.816;2023-08-24T04:17:42;24.60;53.50
32753;DHT22;19121;52.428;10.816;2023-08-24T04:20:07;24.60;53.50
32753;DHT22;19121;52.428;10.816;2023-08-24T04:22:33;24.60;53.50
32753;DHT22;19121;52.428;10.816;2023-08-24T04:24:58;24.60;53.50
32753;DHT22;19121;52.428;10.816;2023-08-24T04:27:25;24.60;53.60
32753;DHT22;19121;52.428;10.816;2023-08-24T04:29:50;24.60;53.50
32753;DHT22;19121;52.428;10.816;2023-08-24T04:32:16;24.60;53.50
32753;DHT22;19121;52.428;10.816;2023-08-24T04:34:41;24.60;53.60
32753;DHT22;19121;52.428;10.816;2023-08-24T04:37:07;24.60;53.50
32753;DHT22;19121;52.428;10.816;2023-08-24T04:39:32;24.50;53.50
32753;DHT22;19121;52.428;10.816;2023-08-24T04:41:58;24.60;53.60
32753;DHT22;19121;52.428;10.816;2023-08-24T04:44:23;24.60;53.50
32753;DHT22;19121;52.428;10.816;2023-08-24T04:46:49;24.60;53.60
32753;DHT22;19121;52.428;10.816;2023-08-24T04:49:15;24.60;53.60
32753;DHT22;19121;52.428;10.816;2023-08-24T04:51:40;24.50;53.60
32753;DHT22;19121;52.428;10.816;2023-08-24T04:54:06;24.60;53.60
32753;DHT22;19121;52.428;10.816;2023-08-24T04:56:31;24.50;53.60
32753;DHT22;19121;52.428;10.816;2023-08-24T04:58:57;24.50;53.60
32753;DHT22;19121;52.428;10.816;2023-08-24T05:01:29;24.60;53.70
32753;DHT22;19121;52.428;10.816;2023-08-24T05:03:57;24.50;53.60
32753;DHT22;19121;52.428;10.816;2023-08-24T05:06:23;24.50;53.70
32753;DHT22;19121;52.428;10.816;2023-08-24T05:08:48;24.50;53.60
32753;DHT22;19121;52.428;10.816;2023-08-24T05:11:16;24.50;53.60
32753;DHT22;19121;52.428;10.816;2023-08-24T05:13:42;24.60;53.70
32753;DHT22;19121;52.428;10.816;2023-08-24T05:16:07;24.50;53.60
32753;DHT22;19121;52.428;10.816;2023-08-24T05:18:34;24.50;53.60
32753;DHT22;19121;52.428;10.816;2023-08-24T05:20:59;24.50;53.60
32753;DHT22;19121;52.428;10.816;2023-08-24T05:23:24;24.60;53.60
32753;DHT22;19121;52.428;10.816;2023-08-24T05:25:50;24.50;53.60
32753;DHT22;19121;52.428;10.816;2023-08-24T05:28:15;24.50;53.60
32753;DHT22;19121;52.428;10.816;2023-08-24T05:30:41;24.60;53.60
32753;DHT22;19121;52.428;10.816;2023-08-24T05:33:06;24.50;53.60
32753;DHT22;19121;52.428;10.816;2023-08-24T05:35:31;24.60;53.70
32753;DHT22;19121;52.428;10.816;2023-08-24T05:37:57;24.60;53.70
32753;DHT22;19121;52.428;10.816;2023-08-24T05:40:22;24.60;53.80
32753;DHT22;19121;52.428;10.816;2023-08-24T05:42:48;24.60;53.70
32753;DHT22;19121;52.428;10.816;2023-08-24T05:45:13;24.60;53.70
32753;DHT22;19121;52.428;10.816;2023-08-24T05:47:39;24.60;53.80
32753;DHT22;19121;52.428;10.816;2023-08-24T05:50:04;24.60;53.70
32753;DHT22;19121;52.428;10.816;2023-08-24T05:52:30;24.60;53.70
32753;DHT22;19121;52.428;10.816;2023-08-24T05:54:56;24.60;53.60
32753;DHT22;19121;52.428;10.816;2023-08-24T05:57:21;24.60;53.60
32753;DHT22;19121;52.428;10.816;2023-08-24T05:59:47;24.60;54.20
32753;DHT22;19121;52.428;10.816;2023-08-24T06:02:12;24.60;53.60
32753;DHT22;19121;52.428;10.816;2023-08-24T06:04:38;24.60;53.80
32753;DHT22;19121;52.428;10.816;2023-08-24T06:07:03;24.70;54.10
32753;DHT22;19121;52.428;10.816;2023-08-24T06:09:30;24.70;54.00
32753;DHT22;19121;52.428;10.816;2023-08-24T06:11:55;24.60;54.10
32753;DHT22;19121;52.428;10.816;2023-08-24T06:14:21;24.60;54.40
32753;DHT22;19121;52.428;10.816;2023-08-24T06:16:46;24.60;54.50
32753;DHT22;19121;52.428;10.816;2023-08-24T06:19:13;24.60;54.50
32753;DHT22;19121;52.428;10.816;2023-08-24T06:21:39;24.60;54.60
32753;DHT22;19121;52.428;10.816;2023-08-24T06:24:04;24.60;54.50
32753;DHT22;19121;52.428;10.816;2023-08-24T06:26:30;24.60;54.40
32753;DHT22;19121;52.428;10.816;2023-08-24T06:28:55;24.60;54.50
32753;DHT22;19121;52.428;10.816;2023-08-24T06:31:21;24.60;54.50
32753;DHT22;19121;52.428;10.816;2023-08-24T06:33:46;24.60;54.80
32753;DHT22;19121;52.428;10.816;2023-08-24T06:36:12;24.60;54.70
32753;DHT22;19121;52.428;10.816;2023-08-24T06:38:37;24.60;54.70
32753;DHT22;19121;52.428;10.816;2023-08-24T06:41:03;24.60;55.00
32753;DHT22;19121;52.428;10.816;2023-08-24T06:43:28;24.60;55.40
32753;DHT22;19121;52.428;10.816;2023-08-24T06:45:54;24.70;55.70
32753;DHT22;19121;52.428;10.816;2023-08-24T06:48:20;24.70;55.30
32753;DHT22;19121;52.428;10.816;2023-08-24T06:50:45;24.80;55.40
32753;DHT22;19121;52.428;10.816;2023-08-24T06:53:11;24.80;54.90
32753;DHT22;19121;52.428;10.816;2023-08-24T06:55:36;24.70;54.90
32753;DHT22;19121;52.428;10.816;2023-08-24T06:58:02;24.70;55.10
32753;DHT22;19121;52.428;10.816;2023-08-24T07:00:30;24.70;55.20
32753;DHT22;19121;52.428;10.816;2023-08-24T07:02:55;24.60;55.40
32753;DHT22;19121;52.428;10.816;2023-08-24T07:05:21;24.60;55.50
32753;DHT22;19121;52.428;10.816;2023-08-24T07:07:46;24.70;55.70
32753;DHT22;19121;52.428;10.816;2023-08-24T07:10:12;24.70;55.60
32753;DHT22;19121;52.428;10.816;2023-08-24T07:12:38;24.70;55.90
32753;DHT22;19121;52.428;10.816;2023-08-24T07:15:06;24.60;55.80
32753;DHT22;19121;52.428;10.816;2023-08-24T07:17:32;24.70;55.70
32753;DHT22;19121;52.428;10.816;2023-08-24T07:19:57;24.70;55.70
32753;DHT22;19121;52.428;10.816;2023-08-24T07:22:23;24.70;55.80
32753;DHT22;19121;52.428;10.816;2023-08-24T07:24:48;24.60;55.70
32753;DHT22;19121;52.428;10.816;2023-08-24T07:27:17;24.60;55.60
32753;DHT22;19121;52.428;10.816;2023-08-24T07:29:43;24.60;55.50
32753;DHT22;19121;52.428;10.816;2023-08-24T07:32:08;24.60;55.70
32753;DHT22;19121;52.428;10.816;2023-08-24T07:34:34;24.50;55.70
32753;DHT22;19121;52.428;10.816;2023-08-24T07:36:59;24.60;56.10
32753;DHT22;19121;52.428;10.816;2023-08-24T07:39:25;24.60;56.50
32753;DHT22;19121;52.428;10.816;2023-08-24T07:41:51;24.60;56.20
32753;DHT22;19121;52.428;10.816;2023-08-24T07:44:16;24.60;56.00
32753;DHT22;19121;52.428;10.816;2023-08-24T07:46:42;24.80;56.00
32753;DHT22;19121;52.428;10.816;2023-08-24T07:49:07;24.80;56.10
32753;DHT22;19121;52.428;10.816;2023-08-24T07:51:33;24.80;55.90
32753;DHT22;19121;52.428;10.816;2023-08-24T07:53:59;24.80;55.80
32753;DHT22;19121;52.428;10.816;2023-08-24T07:56:24;24.80;55.70
32753;DHT22;19121;52.428;10.816;2023-08-24T07:58:50;24.90;55.60
32753;DHT22;19121;52.428;10.816;2023-08-24T08:01:15;24.90;55.50
32753;DHT22;19121;52.428;10.816;2023-08-24T08:03:41;25.00;55.50
32753;DHT22;19121;52.428;10.816;2023-08-24T08:06:06;25.00;55.40
32753;DHT22;19121;52.428;10.816;2023-08-24T08:08:32;25.10;55.30
32753;DHT22;19121;52.428;10.816;2023-08-24T08:10:58;25.10;55.20
32753;DHT22;19121;52.428;10.816;2023-08-24T08:13:25;25.20;55.20
32753;DHT22;19121;52.428;10.816;2023-08-24T08:15:50;25.20;55.10
32753;DHT22;19121;52.428;10.816;2023-08-24T08:18:16;25.30;55.30
32753;DHT22;19121;52.428;10.816;2023-08-24T08:20:41;25.30;55.20
32753;DHT22;19121;52.428;10.816;2023-08-24T08:23:07;25.40;55.20
32753;DHT22;19121;52.428;10.816;2023-08-24T08:25:32;25.40;55.20
32753;DHT22;19121;52.428;10.816;2023-08-24T08:27:58;25.50;55.30
32753;DHT22;19121;52.428;10.816;2023-08-24T08:30:23;25.50;55.20
32753;DHT22;19121;52.428;10.816;2023-08-24T08:32:49;25.60;55.10
32753;DHT22;19121;52.428;10.816;2023-08-24T08:35:16;25.60;54.90
32753;DHT22;19121;52.428;10.816;2023-08-24T08:37:42;25.70;54.90
32753;DHT22;19121;52.428;10.816;2023-08-24T08:40:09;25.80;54.90
32753;DHT22;19121;52.428;10.816;2023-08-24T08:42:34;25.80;54.80
32753;DHT22;19121;52.428;10.816;2023-08-24T08:45:00;25.90;54.90
32753;DHT22;19121;52.428;10.816;2023-08-24T08:47:28;25.90;54.90
32753;DHT22;19121;52.428;10.816;2023-08-24T08:49:53;25.90;54.90
32753;DHT22;19121;52.428;10.816;2023-08-24T08:52:20;26.00;54.70
32753;DHT22;19121;52.428;10.816;2023-08-24T08:54:45;26.00;54.70
32753;DHT22;19121;52.428;10.816;2023-08-24T08:57:11;26.00;54.60
32753;DHT22;19121;52.428;10.816;2023-08-24T08:59:37;26.00;54.60
32753;DHT22;19121;52.428;10.816;2023-08-24T09:02:02;26.10;54.70
32753;DHT22;19121;52.428;10.816;2023-08-24T09:04:31;26.10;54.50
32753;DHT22;19121;52.428;10.816;2023-08-24T09:06:57;26.20;54.50
32753;DHT22;19121;52.428;10.816;2023-08-24T09:09:23;26.20;54.40
32753;DHT22;19121;52.428;10.816;2023-08-24T09:11:49;26.20;54.30
32753;DHT22;19121;52.428;10.816;2023-08-24T09:14:15;26.20;54.30
32753;DHT22;19121;52.428;10.816;2023-08-24T09:16:41;26.20;54.30
32753;DHT22;19121;52.428;10.816;2023-08-24T09:19:06;26.20;54.40
32753;DHT22;19121;52.428;10.816;2023-08-24T09:21:36;26.20;54.40
32753;DHT22;19121;52.428;10.816;2023-08-24T09:24:02;26.20;54.50
32753;DHT22;19121;52.428;10.816;2023-08-24T09:26:29;26.30;54.70
32753;DHT22;19121;52.428;10.816;2023-08-24T09:28:55;26.30;54.60
32753;DHT22;19121;52.428;10.816;2023-08-24T09:31:22;26.30;54.70
32753;DHT22;19121;52.428;10.816;2023-08-24T09:33:47;26.30;54.50
32753;DHT22;19121;52.428;10.816;2023-08-24T09:36:13;26.30;54.40
32753;DHT22;19121;52.428;10.816;2023-08-24T09:38:45;26.40;54.30
32753;DHT22;19121;52.428;10.816;2023-08-24T09:41:10;26.30;54.20
32753;DHT22;19121;52.428;10.816;2023-08-24T09:43:36;26.30;54.20
32753;DHT22;19121;52.428;10.816;2023-08-24T09:46:01;26.30;54.20
32753;DHT22;19121;52.428;10.816;2023-08-24T09:48:28;26.30;54.30
32753;DHT22;19121;52.428;10.816;2023-08-24T09:50:53;26.40;54.40
32753;DHT22;19121;52.428;10.816;2023-08-24T09:53:22;26.40;54.40
32753;DHT22;19121;52.428;10.816;2023-08-24T09:55:54;26.40;54.40
32753;DHT22;19121;52.428;10.816;2023-08-24T09:58:21;26.40;54.30
32753;DHT22;19121;52.428;10.816;2023-08-24T10:00:47;26.50;54.30
32753;DHT22;19121;52.428;10.816;2023-08-24T10:03:20;26.50;54.40
32753;DHT22;19121;52.428;10.816;2023-08-24T10:05:47;26.40;54.20
32753;DHT22;19121;52.428;10.816;2023-08-24T10:08:13;26.40;54.00
32753;DHT22;19121;52.428;10.816;2023-08-24T10:10:39;26.40;54.00
32753;DHT22;19121;52.428;10.816;2023-08-24T10:13:11;26.40;53.90
32753;DHT22;19121;52.428;10.816;2023-08-24T10:15:38;26.40;53.90
32753;DHT22;19121;52.428;10.816;2023-08-24T10:18:12;26.40;53.90
32753;DHT22;19121;52.428;10.816;2023-08-24T10:20:38;26.40;54.00
32753;DHT22;19121;52.428;10.816;2023-08-24T10:23:04;26.40;54.00
32753;DHT22;19121;52.428;10.816;2023-08-24T10:25:29;26.40;54.10
32753;DHT22;19121;52.428;10.816;2023-08-24T10:27:55;26.40;54.20
32753;DHT22;19121;52.428;10.816;2023-08-24T10:30:21;26.40;54.20
32753;DHT22;19121;52.428;10.816;2023-08-24T10:32:46;26.40;54.50
32753;DHT22;19121;52.428;10.816;2023-08-24T10:35:13;26.40;54.50
32753;DHT22;19121;52.428;10.816;2023-08-24T10:37:41;26.40;54.30
32753;DHT22;19121;52.428;10.816;2023-08-24T10:40:09;26.40;54.20
32753;DHT22;19121;52.428;10.816;2023-08-24T10:42:45;26.50;54.90
32753;DHT22;19121;52.428;10.816;2023-08-24T10:45:14;26.50;54.10
32753;DHT22;19121;52.428;10.816;2023-08-24T10:47:44;26.50;53.80
32753;DHT22;19121;52.428;10.816;2023-08-24T10:50:11;26.50;53.60
32753;DHT22;19121;52.428;10.816;2023-08-24T10:52:37;26.60;53.70
32753;DHT22;19121;52.428;10.816;2023-08-24T10:55:05;26.50;53.70
32753;DHT22;19121;52.428;10.816;2023-08-24T10:57:47;26.60;53.80
32753;DHT22;19121;52.428;10.816;2023-08-24T11:00:20;26.60;53.90
32753;DHT22;19121;52.428;10.816;2023-08-24T11:02:48;26.60;53.80
32753;DHT22;19121;52.428;10.816;2023-08-24T11:05:30;26.70;53.90
32753;DHT22;19121;52.428;10.816;2023-08-24T11:08:01;26.70;53.80
32753;DHT22;19121;52.428;10.816;2023-08-24T11:10:34;26.70;53.80
32753;DHT22;19121;52.428;10.816;2023-08-24T11:13:15;26.70;53.70
32753;DHT22;19121;52.428;10.816;2023-08-24T11:15:42;26.70;53.80
32753;DHT22;19121;52.428;10.816;2023-08-24T11:18:11;26.70;53.70
32753;DHT22;19121;52.428;10.816;2023-08-24T11:20:36;26.70;53.80
32753;DHT22;19121;52.428;10.816;2023-08-24T11:23:02;26.70;53.60
32753;DHT22;19121;52.428;10.816;2023-08-24T11:25:28;26.70;53.50
32753;DHT22;19121;52.428;10.816;2023-08-24T11:27:53;26.70;53.40
32753;DHT22;19121;52.428;10.816;2023-08-24T11:30:19;26.70;53.30
32753;DHT22;19121;52.428;10.816;2023-08-24T11:32:44;26.70;53.20
32753;DHT22;19121;52.428;10.816;2023-08-24T11:35:13;26.70;53.30
32753;DHT22;19121;52.428;10.816;2023-08-24T11:37:39;26.70;53.40
32753;DHT22;19121;52.428;10.816;2023-08-24T11:40:06;26.60;53.50
32753;DHT22;19121;52.428;10.816;2023-08-24T11:42:41;26.70;53.50
32753;DHT22;19121;52.428;10.816;2023-08-24T11:45:11;26.70;53.50
32753;DHT22;19121;52.428;10.816;2023-08-24T11:47:37;26.60;53.50
32753;DHT22;19121;52.428;10.816;2023-08-24T11:50:03;26.70;53.40
32753;DHT22;19121;52.428;10.816;2023-08-24T11:52:29;26.70;53.50
32753;DHT22;19121;52.428;10.816;2023-08-24T11:54:54;26.70;53.50
32753;DHT22;19121;52.428;10.816;2023-08-24T11:57:20;26.70;53.40
32753;DHT22;19121;52.428;10.816;2023-08-24T11:59:45;26.70;53.30
32753;DHT22;19121;52.428;10.816;2023-08-24T12:02:11;26.70;53.40
32753;DHT22;19121;52.428;10.816;2023-08-24T12:04:37;26.70;53.40
32753;DHT22;19121;52.428;10.816;2023-08-24T12:07:08;26.70;53.50
32753;DHT22;19121;52.428;10.816;2023-08-24T12:09:33;26.70;53.40
32753;DHT22;19121;52.428;10.816;2023-08-24T12:11:59;26.70;53.40
32753;DHT22;19121;52.428;10.816;2023-08-24T12:14:24;26.70;53.40
32753;DHT22;19121;52.428;10.816;2023-08-24T12:16:50;26.70;53.50
32753;DHT22;19121;52.428;10.816;2023-08-24T12:19:20;26.70;53.50
32753;DHT22;19121;52.428;10.816;2023-08-24T12:21:49;26.70;53.50
32753;DHT22;19121;52.428;10.816;2023-08-24T12:24:15;26.70;53.50
32753;DHT22;19121;52.428;10.816;2023-08-24T12:26:41;26.80;53.60
32753;DHT22;19121;52.428;10.816;2023-08-24T12:29:07;26.80;53.60
32753;DHT22;19121;52.428;10.816;2023-08-24T12:31:33;26.80;53.60
32753;DHT22;19121;52.428;10.816;2023-08-24T12:34:08;26.80;53.60
32753;DHT22;19121;52.428;10.816;2023-08-24T12:36:37;26.80;53.60
32753;DHT22;19121;52.428;10.816;2023-08-24T12:39:04;26.80;53.60
32753;DHT22;19121;52.428;10.816;2023-08-24T12:41:30;26.80;53.70
32753;DHT22;19121;52.428;10.816;2023-08-24T12:43:55;26.80;53.70
32753;DHT22;19121;52.428;10.816;2023-08-24T12:46:21;26.80;53.70
32753;DHT22;19121;52.428;10.816;2023-08-24T12:48:46;26.80;53.70
32753;DHT22;19121;52.428;10.816;2023-08-24T12:51:12;26.80;53.70
32753;DHT22;19121;52.428;10.816;2023-08-24T12:53:37;26.70;53.50
32753;DHT22;19121;52.428;10.816;2023-08-24T12:56:03;26.80;53.60
32753;DHT22;19121;52.428;10.816;2023-08-24T12:58:29;26.80;53.50
32753;DHT22;19121;52.428;10.816;2023-08-24T13:00:55;26.80;53.50
32753;DHT22;19121;52.428;10.816;2023-08-24T13:03:20;26.80;53.60
32753;DHT22;19121;52.428;10.816;2023-08-24T13:05:45;26.80;53.50
32753;DHT22;19121;52.428;10.816;2023-08-24T13:08:13;26.80;53.50
32753;DHT22;19121;52.428;10.816;2023-08-24T13:10:38;26.90;53.50
32753;DHT22;19121;52.428;10.816;2023-08-24T13:13:04;26.90;53.40
32753;DHT22;19121;52.428;10.816;2023-08-24T13:15:29;26.80;53.40
32753;DHT22;19121;52.428;10.816;2023-08-24T13:17:55;26.90;53.40
32753;DHT22;19121;52.428;10.816;2023-08-24T13:20:21;26.90;53.40
32753;DHT22;19121;52.428;10.816;2023-08-24T13:22:47;26.90;53.40
32753;DHT22;19121;52.428;10.816;2023-08-24T13:25:12;26.90;53.40
32753;DHT22;19121;52.428;10.816;2023-08-24T13:27:37;26.90;53.40
32753;DHT22;19121;52.428;10.816;2023-08-24T13:30:03;26.90;53.40
32753;DHT22;19121;52.428;10.816;2023-08-24T13:32:29;26.90;53.40
32753;DHT22;19121;52.428;10.816;2023-08-24T13:34:55;26.90;53.40
32753;DHT22;19121;52.428;10.816;2023-08-24T13:37:21;26.90;53.40
32753;DHT22;19121;52.428;10.816;2023-08-24T13:39:46;26.90;53.40
32753;DHT22;19121;52.428;10.816;2023-08-24T13:42:12;26.90;53.40
32753;DHT22;19121;52.428;10.816;2023-08-24T13:44:38;26.90;53.40
32753;DHT22;19121;52.428;10.816;2023-08-24T13:47:04;26.90;53.40
32753;DHT22;19121;52.428;10.816;2023-08-24T13:49:29;26.90;53.40
32753;DHT22;19121;52.428;10.816;2023-08-24T13:51:55;26.90;53.40
32753;DHT22;19121;52.428;10.816;2023-08-24T13:54:20;26.90;53.40
32753;DHT22;19121;52.428;10.816;2023-08-24T13:56:46;27.00;53.40
32753;DHT22;19121;52.428;10.816;2023-08-24T13:59:12;27.00;53.40
32753;DHT22;19121;52.428;10.816;2023-08-24T14:01:39;27.00;53.40
32753;DHT22;19121;52.428;10.816;2023-08-24T14:04:04;26.90;53.40
32753;DHT22;19121;52.428;10.816;2023-08-24T14:06:30;27.00;53.40
32753;DHT22;19121;52.428;10.816;2023-08-24T14:08:56;26.90;53.40
32753;DHT22;19121;52.428;10.816;2023-08-24T14:11:22;27.00;53.40
32753;DHT22;19121;52.428;10.816;2023-08-24T14:13:47;27.00;53.40
32753;DHT22;19121;52.428;10.816;2023-08-24T14:16:13;27.00;53.30
32753;DHT22;19121;52.428;10.816;2023-08-24T14:18:38;27.00;53.30
32753;DHT22;19121;52.428;10.816;2023-08-24T14:21:04;27.00;53.20
32753;DHT22;19121;52.428;10.816;2023-08-24T14:23:29;27.00;53.20
32753;DHT22;19121;52.428;10.816;2023-08-24T14:25:55;27.00;53.20
32753;DHT22;19121;52.428;10.816;2023-08-24T14:28:21;27.00;53.30
32753;DHT22;19121;52.428;10.816;2023-08-24T14:30:51;27.00;53.40
32753;DHT22;19121;52.428;10.816;2023-08-24T14:33:16;27.00;53.40
32753;DHT22;19121;52.428;10.816;2023-08-24T14:35:49;27.00;53.40
32753;DHT22;19121;52.428;10.816;2023-08-24T14:38:14;26.90;53.30
32753;DHT22;19121;52.428;10.816;2023-08-24T14:40:40;26.90;53.40
32753;DHT22;19121;52.428;10.816;2023-08-24T14:43:05;26.90;53.40
32753;DHT22;19121;52.428;10.816;2023-08-24T14:45:31;26.90;53.40
32753;DHT22;19121;52.428;10.816;2023-08-24T14:47:56;26.90;53.40
32753;DHT22;19121;52.428;10.816;2023-08-24T14:50:22;27.00;53.50
32753;DHT22;19121;52.428;10.816;2023-08-24T14:52:47;26.90;53.40
32753;DHT22;19121;52.428;10.816;2023-08-24T14:55:12;26.90;53.40
32753;DHT22;19121;52.428;10.816;2023-08-24T14:57:38;26.90;53.40
32753;DHT22;19121;52.428;10.816;2023-08-24T15:00:03;26.90;53.40
32753;DHT22;19121;52.428;10.816;2023-08-24T15:02:30;26.90;53.40
32753;DHT22;19121;52.428;10.816;2023-08-24T15:04:57;26.90;53.40
32753;DHT22;19121;52.428;10.816;2023-08-24T15:07:22;26.90;53.50
32753;DHT22;19121;52.428;10.816;2023-08-24T15:09:48;26.90;53.50
32753;DHT22;19121;52.428;10.816;2023-08-24T15:12:13;26.90;53.40